Time;durP1;ratioP1;P1;durP2;ratioP2;P2;SDS_P1;SDS_P2;PMS_P1;PMS_P2;Temp;Humidity;BMP_temperature;BMP_pressure;BME280_temperature;BME280_humidity;BME280_pressure;Samples;Min_cycle;Max_cycle;Signal;HPM_P1;HPM_P2
2022/04/01 00:02:25;;;;;;;0.85;0.30;;;;;;;-0.02;40.85;100872.66;5025511;28;20497;-79
2022/04/01 00:04:51;;;;;;;1.27;0.10;;;;;;;-0.37;41.69;100874.22;5029462;28;20049;-81
2022/04/01 00:07:17;;;;;;;1.38;0.17;;;;;;;-0.10;41.17;100872.66;5024084;28;20037;-82
2022/04/01 00:09:43;;;;;;;0.63;0.20;;;;;;;-0.04;41.41;100879.50;5044327;28;20032;-80
2022/04/01 00:12:09;;;;;;;0.57;0.10;;;;;;;-0.11;40.91;100875.19;5010049;28;20055;-81
2022/04/01 00:14:36;;;;;;;2.25;0.40;;;;;;;-0.10;41.02;100874.34;5025862;28;20025;-82
2022/04/01 00:17:02;;;;;;;0.95;0.28;;;;;;;-0.26;41.51;100879.44;5037357;28;20041;-78
2022/04/01 00:19:28;;;;;;;1.30;0.15;;;;;;;-0.24;41.50;100877.69;5025578;28;20029;-78
2022/04/01 00:21:53;;;;;;;2.08;0.43;;;;;;;-0.09;41.37;100876.06;5027160;28;20985;-80
2022/04/01 00:24:19;;;;;;;0.60;0.22;;;;;;;-0.26;41.46;100878.53;5027759;28;20033;-81
2022/04/01 00:26:45;;;;;;;0.68;0.20;;;;;;;-0.29;41.80;100881.13;5043018;28;20036;-79
2022/04/01 00:29:17;;;;;;;2.95;0.20;;;;;;;-0.13;41.72;100883.75;5042982;28;20148;-80
2022/04/01 00:31:44;;;;;;;4.72;0.17;;;;;;;0.13;41.08;100880.44;5039884;28;20040;-82
2022/04/01 00:34:16;;;;;;;1.08;0.40;;;;;;;-0.40;42.18;100886.19;5041498;28;20060;-80
2022/04/01 00:36:46;;;;;;;2.20;0.20;;;;;;;-0.36;42.17;100878.50;5004573;28;20028;-81
2022/04/01 00:39:13;;;;;;;1.05;0.20;;;;;;;-0.18;42.10;100888.00;5020489;28;20041;-83
2022/04/01 00:41:40;;;;;;;0.77;0.10;;;;;;;-0.18;41.91;100879.44;5022657;28;20029;-82
2022/04/01 00:44:19;;;;;;;0.80;0.20;;;;;;;-0.17;41.88;100882.03;5038476;28;20198;-82
2022/04/01 00:46:50;;;;;;;0.38;0.10;;;;;;;-0.04;41.81;100888.06;5022367;28;20036;-80
2022/04/01 00:49:17;;;;;;;1.95;0.20;;;;;;;-0.40;42.44;100873.34;5026945;28;20043;-81
2022/04/01 00:51:44;;;;;;;5.78;0.17;;;;;;;-0.20;42.17;100884.56;5042543;28;20055;-78
2022/04/01 00:54:11;;;;;;;2.78;0.20;;;;;;;-0.17;42.17;100887.19;5024322;28;20116;-79
2022/04/01 00:56:38;;;;;;;0.20;0.10;;;;;;;-0.44;42.45;100881.88;5037760;28;20118;-79
2022/04/01 00:59:06;;;;;;;4.25;0.38;;;;;;;-0.00;41.66;100870.97;5042302;28;20045;-81
2022/04/01 01:01:34;;;;;;;4.47;0.45;;;;;;;-0.14;41.47;100878.63;5048669;28;20037;-78
2022/04/01 01:04:10;;;;;;;2.25;0.20;;;;;;;-0.10;41.77;100890.63;5020486;28;20083;-76
2022/04/01 01:06:38;;;;;;;1.48;0.40;;;;;;;-0.07;41.43;100882.06;5025567;28;20106;-79
2022/04/01 01:09:05;;;;;;;2.17;0.10;;;;;;;-0.10;41.46;100880.34;5023104;28;20526;-78
2022/04/01 01:11:31;;;;;;;0.70;0.55;;;;;;;-0.32;41.78;100893.94;5045730;28;20061;-80
2022/04/01 01:13:57;;;;;;;0.77;0.10;;;;;;;-0.39;42.05;100878.50;5021949;28;20792;-80
2022/04/01 01:16:23;;;;;;;0.30;0.10;;;;;;;-0.13;41.72;100891.44;5023127;28;20407;-79
2022/04/01 01:19:00;;;;;;;0.25;0.10;;;;;;;-0.36;41.83;100880.22;5043362;28;20041;-81
2022/04/01 01:21:27;;;;;;;1.38;0.10;;;;;;;-0.12;41.90;100882.06;5029003;28;20029;-80
2022/04/01 01:23:56;;;;;;;0.65;0.05;;;;;;;-0.26;41.58;100888.81;5022067;28;20150;-79
2022/04/01 01:26:22;;;;;;;3.92;0.10;;;;;;;-0.42;42.04;100878.47;5041438;28;20033;-79
2022/04/01 01:28:48;;;;;;;2.10;0.10;;;;;;;-0.23;41.54;100878.59;5025558;28;20056;-80
2022/04/01 01:31:14;;;;;;;1.65;0.22;;;;;;;-0.13;41.38;100883.75;5028706;28;20036;-79
2022/04/01 01:33:43;;;;;;;0.25;0.05;;;;;;;-0.21;41.56;100874.31;5045558;28;20064;-78
2022/04/01 01:36:10;;;;;;;1.30;0.55;;;;;;;-0.38;41.17;100880.19;5045740;28;20084;-82
2022/04/01 01:38:36;;;;;;;0.75;0.13;;;;;;;-0.11;40.96;100872.63;5046527;28;20045;-79
2022/04/01 01:41:02;;;;;;;1.13;0.28;;;;;;;-0.18;41.04;100872.59;5045912;28;20033;-81
2022/04/01 01:43:29;;;;;;;1.58;0.20;;;;;;;-0.04;40.74;100864.09;5028419;28;20455;-81
2022/04/01 01:45:55;;;;;;;0.98;0.30;;;;;;;-0.32;41.85;100873.41;5034884;28;20025;-84
2022/04/01 01:48:22;;;;;;;1.02;0.15;;;;;;;-0.19;41.23;100862.31;5047863;28;20056;-82
2022/04/01 01:56:17;;;;;;;2.47;0.13;;;;;;;-0.43;41.48;100870.78;5026444;28;20029;-80
2022/04/01 01:58:51;;;;;;;0.55;0.08;;;;;;;-0.30;40.96;100870.00;5028254;28;20045;-81
2022/04/01 02:01:17;;;;;;;0.52;0.10;;;;;;;-0.26;40.80;100863.13;5027772;28;20036;-80
2022/04/01 02:03:42;;;;;;;1.50;0.10;;;;;;;-0.37;41.16;100865.66;5031460;28;20056;-78
2022/04/01 02:06:08;;;;;;;4.07;0.20;;;;;;;-0.30;41.15;100866.53;5045233;28;20064;-77
2022/04/01 02:08:33;;;;;;;0.28;0.10;;;;;;;-0.26;41.03;100868.28;5042068;28;20036;-82
2022/04/01 02:10:59;;;;;;;0.30;0.10;;;;;;;-0.32;41.37;100869.13;5026639;28;20100;-79
2022/04/01 02:13:27;;;;;;;0.20;0.00;;;;;;;-0.11;40.95;100872.63;5009489;28;20040;-79
2022/04/01 02:15:54;;;;;;;1.20;0.10;;;;;;;-0.34;41.38;100875.97;5042658;28;20029;-81
2022/04/01 02:18:20;;;;;;;2.35;0.10;;;;;;;-0.21;40.91;100877.72;5026208;28;20033;-82
2022/04/01 02:20:47;;;;;;;2.90;0.10;;;;;;;-0.28;40.90;100876.00;5043612;28;20025;-81
2022/04/01 02:23:13;;;;;;;0.77;0.10;;;;;;;-0.63;41.66;100876.63;5026654;28;20063;-79
2022/04/01 02:25:42;;;;;;;5.10;0.32;;;;;;;-0.39;41.03;100877.66;5044902;28;20040;-79
2022/04/01 02:28:12;;;;;;;0.47;0.10;;;;;;;-0.24;40.80;100880.25;5029511;28;20111;-80
2022/04/01 02:30:38;;;;;;;0.30;0.03;;;;;;;-0.27;40.81;100881.97;5035443;28;20025;-76
2022/04/01 02:33:27;;;;;;;1.70;0.08;;;;;;;-0.33;40.92;100877.66;5066084;28;20033;-77
2022/04/01 02:35:58;;;;;;;1.65;0.10;;;;;;;-0.56;41.27;100875.81;5042332;28;20131;-82
2022/04/01 02:38:25;;;;;;;0.45;0.10;;;;;;;-0.29;40.67;100889.66;5028373;28;20504;-81
2022/04/01 02:40:55;;;;;;;2.88;0.77;;;;;;;-0.56;41.21;100885.25;5045556;28;20037;-77
2022/04/01 02:43:22;;;;;;;3.13;0.10;;;;;;;-0.50;41.16;100886.97;5034086;28;20099;-81
2022/04/01 02:45:48;;;;;;;1.88;0.10;;;;;;;-0.41;41.23;100890.47;5031875;28;20049;-79
2022/04/01 02:48:15;;;;;;;9.05;0.15;;;;;;;-0.39;41.36;100893.06;5045249;28;20052;-79
2022/04/01 02:50:59;;;;;;;0.20;0.10;;;;;;;-0.47;41.12;100893.00;5044321;28;20060;-83
2022/04/01 02:53:25;;;;;;;1.88;0.30;;;;;;;-0.16;40.21;100900.88;5043178;28;20037;-81
2022/04/01 02:55:51;;;;;;;2.65;0.10;;;;;;;-0.56;41.25;100896.34;5042444;28;20033;-80
2022/04/01 02:58:17;;;;;;;0.35;0.10;;;;;;;-0.23;41.13;100892.28;5044887;28;20514;-81
2022/04/01 03:00:43;;;;;;;2.38;0.28;;;;;;;-0.60;41.89;100899.75;5043633;28;20028;-82
2022/04/01 03:03:09;;;;;;;0.70;0.20;;;;;;;-0.65;41.87;100895.44;5026473;28;20075;-81
2022/04/01 03:05:40;;;;;;;1.02;0.25;;;;;;;-0.61;41.84;100898.06;5029404;28;20028;-81
2022/04/01 03:08:07;;;;;;;2.47;0.10;;;;;;;-0.49;41.52;100891.28;5025321;28;20033;-81
2022/04/01 03:10:35;;;;;;;1.10;0.10;;;;;;;-0.59;41.79;100901.50;5024360;28;20040;-78
2022/04/01 03:13:01;;;;;;;3.63;0.10;;;;;;;-0.66;41.79;100904.88;5002838;28;20763;-81
2022/04/01 03:15:50;;;;;;;0.88;0.17;;;;;;;-0.40;41.39;100906.72;5029381;28;20036;-81
2022/04/01 03:18:28;;;;;;;0.30;0.10;;;;;;;-0.49;41.72;100912.66;5042588;28;20049;-80
2022/04/01 03:20:54;;;;;;;1.00;0.10;;;;;;;-0.63;41.57;100899.75;5026039;28;20667;-80
2022/04/01 03:23:19;;;;;;;3.42;0.70;;;;;;;-0.54;41.69;100913.50;5027381;28;20052;-78
2022/04/01 03:25:45;;;;;;;1.85;0.10;;;;;;;-0.44;41.43;100905.84;5042755;28;20477;-82
2022/04/01 03:28:14;;;;;;;1.50;0.10;;;;;;;-0.76;42.05;100909.06;5048282;28;20451;-79
2022/04/01 03:30:40;;;;;;;0.60;0.43;;;;;;;-0.71;41.70;100918.50;5046292;28;20060;-81
2022/04/01 03:33:06;;;;;;;1.17;0.10;;;;;;;-0.35;41.26;100917.88;5042071;28;20076;-82
2022/04/01 03:35:32;;;;;;;3.13;0.10;;;;;;;-0.49;41.61;100933.22;5024109;28;20387;-82
2022/04/01 03:37:59;;;;;;;1.63;0.17;;;;;;;-0.51;41.95;100918.66;5023003;28;20045;-83
2022/04/01 03:40:28;;;;;;;0.77;0.13;;;;;;;-0.74;42.59;100929.63;5026380;28;20045;-80
2022/04/01 03:42:55;;;;;;;0.45;0.15;;;;;;;-0.58;42.62;100928.00;5023609;28;20041;-82
2022/04/01 03:45:22;;;;;;;0.60;0.10;;;;;;;-0.67;42.64;100913.41;5013050;28;20032;-83
2022/04/01 03:48:34;;;;;;;0.25;0.10;;;;;;;-0.52;42.17;100932.34;5043126;28;20037;-82
2022/04/01 03:51:01;;;;;;;0.75;0.10;;;;;;;-0.49;42.07;100930.63;5025467;28;20035;-81
2022/04/01 03:53:30;;;;;;;2.58;0.10;;;;;;;-0.55;42.17;100925.47;5027277;28;20445;-85
2022/04/01 03:56:02;;;;;;;0.57;0.10;;;;;;;-0.32;41.79;100935.91;5008519;28;20039;-81
2022/04/01 03:59:01;;;;;;;0.70;0.13;;;;;;;-0.32;42.09;100935.91;5027268;28;20281;-83
2022/04/01 04:01:27;;;;;;;1.83;0.20;;;;;;;-0.68;42.99;100941.63;5038616;28;20036;-82
2022/04/01 04:03:57;;;;;;;1.45;0.20;;;;;;;-0.49;42.49;100945.19;5042354;28;20048;-78
2022/04/01 04:06:24;;;;;;;1.33;0.30;;;;;;;-0.40;42.36;100950.38;5028849;28;20025;-81
2022/04/01 04:08:57;;;;;;;1.20;0.10;;;;;;;-0.46;42.21;100947.78;5038529;28;20684;-82
2022/04/01 04:11:28;;;;;;;0.20;0.00;;;;;;;-0.30;41.79;100959.00;5006891;28;20127;-80
2022/04/01 04:14:12;;;;;;;0.40;0.10;;;;;;;-0.39;42.41;100957.25;5008056;28;20139;-79
2022/04/01 04:16:44;;;;;;;3.00;0.25;;;;;;;-0.55;42.56;100951.13;5037868;28;20186;-80
2022/04/01 04:19:22;;;;;;;1.83;0.20;;;;;;;-0.54;42.79;100962.28;5023179;28;20041;-81
2022/04/01 04:22:11;;;;;;;2.22;0.28;;;;;;;-0.70;43.00;100953.59;5021634;28;20445;-81
2022/04/01 04:24:53;;;;;;;0.43;0.10;;;;;;;-0.38;42.00;100961.53;5038552;28;20521;-78
2022/04/01 04:27:25;;;;;;;5.05;1.20;;;;;;;-0.49;42.10;100965.72;5021679;28;20047;-79
2022/04/01 04:29:52;;;;;;;2.90;0.80;;;;;;;-0.51;42.01;100959.72;5021411;28;20482;-80
2022/04/01 04:32:30;;;;;;;4.38;0.10;;;;;;;-0.43;41.74;100971.78;5022647;28;20508;-77
2022/04/01 04:34:56;;;;;;;1.00;0.10;;;;;;;-0.63;42.43;100963.94;5040339;28;20040;-83
2022/04/01 04:37:27;;;;;;;2.92;0.40;;;;;;;-0.43;42.04;100969.22;5023173;28;20052;-80
2022/04/01 04:39:53;;;;;;;1.48;0.10;;;;;;;-0.47;42.24;100977.72;5023614;28;20047;-79
2022/04/01 04:42:21;;;;;;;1.92;0.30;;;;;;;-0.47;42.47;100977.72;5024735;28;20036;-79
2022/04/01 04:44:48;;;;;;;1.20;0.10;;;;;;;-0.51;42.23;100975.97;5020588;28;20032;-81
2022/04/01 04:47:25;;;;;;;0.70;0.52;;;;;;;-0.39;42.18;100981.22;5025427;28;20063;-80
2022/04/01 04:49:53;;;;;;;1.95;0.15;;;;;;;-0.45;42.20;100988.03;5006805;28;20025;-79
2022/04/01 04:52:22;;;;;;;1.10;0.22;;;;;;;-0.28;42.39;100994.16;5027499;28;20032;-78
2022/04/01 04:54:50;;;;;;;5.93;0.13;;;;;;;-0.39;42.37;100998.34;5063779;28;20048;-77
2022/04/01 04:57:26;;;;;;;0.50;0.10;;;;;;;-0.52;42.36;100999.09;5048802;28;20044;-85
2022/04/01 04:59:53;;;;;;;0.20;0.03;;;;;;;-0.50;42.65;100989.69;5024434;28;20060;-79
2022/04/01 05:02:42;;;;;;;;;;;;;;;-0.28;42.27;100999.28;5047138;28;20100;-79
2022/04/01 05:05:21;;;;;;;0.75;0.35;;;;;;;-0.62;43.04;101004.13;5005815;28;19923;-79
2022/04/01 05:08:44;;;;;;;0.28;0.10;;;;;;;-0.46;42.59;101004.25;4972426;28;20046;-79
2022/04/01 05:11:35;;;;;;;1.75;0.30;;;;;;;-0.61;42.54;101000.75;5041625;28;20043;-83
2022/04/01 05:14:40;;;;;;;0.80;0.32;;;;;;;-0.49;42.72;101007.66;5040851;28;20459;-82
2022/04/01 05:17:15;;;;;;;1.55;0.38;;;;;;;-0.35;42.17;101013.78;5042707;28;20056;-82
2022/04/01 05:19:55;;;;;;;0.90;0.82;;;;;;;-0.69;43.08;101022.06;5036195;28;20111;-77
2022/04/01 05:22:29;;;;;;;0.98;0.13;;;;;;;-0.37;42.38;101020.63;5015731;28;20039;-82
2022/04/01 05:25:00;;;;;;;2.28;0.15;;;;;;;-0.31;42.16;101019.78;5037599;28;20033;-78
2022/04/01 05:27:30;;;;;;;1.85;0.10;;;;;;;-0.40;42.35;101024.88;5040595;28;20116;-79
2022/04/01 05:30:18;;;;;;;2.90;0.20;;;;;;;-0.16;42.12;101027.63;5049749;28;20044;-79
2022/04/01 05:33:10;;;;;;;0.70;0.10;;;;;;;-0.54;42.73;101031.59;5043547;28;20041;-82
2022/04/01 05:35:40;;;;;;;0.50;0.30;;;;;;;-0.27;41.81;101029.25;5022570;28;20033;-83
2022/04/01 05:38:07;;;;;;;1.73;0.10;;;;;;;-0.56;42.39;101040.13;5041630;28;20032;-82
2022/04/01 05:40:35;;;;;;;2.60;0.40;;;;;;;-0.36;42.00;101047.16;5021093;28;20456;-80
2022/04/01 05:43:04;;;;;;;5.72;0.15;;;;;;;-0.19;41.60;101045.59;5023241;28;20041;-80
2022/04/01 05:45:53;;;;;;;1.52;0.57;;;;;;;-0.32;41.12;101037.78;5042050;28;20036;-82
2022/04/01 05:48:20;;;;;;;5.18;0.20;;;;;;;-0.03;41.27;101055.97;5037217;28;20041;-80
2022/04/01 05:50:50;;;;;;;0.80;0.20;;;;;;;-0.32;41.42;101058.34;5036943;28;20035;-81
2022/04/01 05:53:19;;;;;;;1.00;0.20;;;;;;;-0.32;41.69;101061.75;5036308;28;20040;-80
2022/04/01 05:55:51;;;;;;;0.40;0.20;;;;;;;-0.27;41.16;101072.06;5038766;28;20120;-80
2022/04/01 05:58:17;;;;;;;3.17;0.35;;;;;;;-0.56;41.98;101073.50;5021672;28;20677;-82
2022/04/01 06:01:13;;;;;;;0.52;0.10;;;;;;;-0.01;41.24;101077.41;5020973;28;20457;-79
2022/04/01 06:03:39;;;;;;;1.83;0.10;;;;;;;-0.18;41.38;101083.25;5016647;28;20548;-80
2022/04/01 06:06:54;;;;;;;0.88;0.13;;;;;;;0.06;41.31;101076.59;5027091;28;20032;-81
2022/04/01 06:09:40;;;;;;;3.38;0.15;;;;;;;0.03;40.98;101086.84;5009309;28;20033;-80
2022/04/01 06:12:36;;;;;;;0.85;0.20;;;;;;;0.24;40.98;101076.72;5039625;28;20099;-80
2022/04/01 06:15:37;;;;;;;2.00;0.15;;;;;;;0.04;41.56;101096.28;5027853;28;20099;-80
2022/04/01 06:18:50;;;;;;;0.75;0.10;;;;;;;-0.16;41.43;101096.13;5030314;28;20437;-78
2022/04/01 06:21:24;;;;;;;;;;;;;;;-0.22;41.53;101096.94;5030630;28;20509;-80
2022/04/01 06:24:08;;;;;;;1.83;0.03;;;;;;;-0.15;41.37;101106.44;5041119;28;19921;-79
2022/04/01 06:26:52;;;;;;;2.13;0.20;;;;;;;-0.02;41.00;101109.94;5020195;28;20033;-79
2022/04/01 06:29:42;;;;;;;1.50;0.20;;;;;;;0.13;40.22;101113.47;5020470;28;20032;-77
2022/04/01 06:32:19;;;;;;;0.93;0.10;;;;;;;-0.02;40.56;101114.22;5033910;28;20063;-81
2022/04/01 06:35:03;;;;;;;2.40;0.10;;;;;;;-0.18;41.02;101118.38;5042178;28;20281;-81
2022/04/01 06:38:05;;;;;;;0.50;0.10;;;;;;;-0.41;41.05;101121.59;5040189;28;20040;-80
2022/04/01 06:41:07;;;;;;;0.50;0.10;;;;;;;-0.15;38.35;101120.97;5050087;28;20068;-78
2022/04/01 06:43:43;;;;;;;0.73;0.10;;;;;;;0.07;40.27;101120.28;5017540;28;20075;-81
2022/04/01 06:46:28;;;;;;;0.70;0.10;;;;;;;0.27;40.37;101128.13;5045222;28;20094;-80
2022/04/01 06:48:55;;;;;;;1.25;0.10;;;;;;;0.24;40.71;101133.25;5025944;28;20521;-77
2022/04/01 06:51:40;;;;;;;0.30;0.10;;;;;;;0.31;40.59;101135.88;5024914;28;20129;-82
2022/04/01 06:54:24;;;;;;;3.28;0.75;;;;;;;0.19;41.08;101142.66;5042542;28;20048;-83
2022/04/01 06:57:09;;;;;;;2.55;0.38;;;;;;;0.32;40.89;101151.31;5044432;28;20051;-83
2022/04/01 06:59:56;;;;;;;1.13;0.30;;;;;;;-0.30;41.11;101149.97;5042630;28;20033;-80
2022/04/01 07:02:25;;;;;;;0.90;0.20;;;;;;;0.13;41.10;101155.47;5014081;28;20055;-81
2022/04/01 07:08:21;;;;;;;0.90;0.22;;;;;;;0.36;40.29;101157.34;5044657;28;20609;-82
2022/04/01 07:10:48;;;;;;;4.63;0.43;;;;;;;0.37;40.75;101159.06;5008067;28;20064;-77
2022/04/01 07:13:15;;;;;;;0.90;0.10;;;;;;;0.44;40.53;101160.84;5048766;28;20053;-75
2022/04/01 07:15:41;;;;;;;2.70;0.25;;;;;;;0.31;40.50;101164.16;5062791;28;20029;-78
2022/04/01 07:18:07;;;;;;;1.15;0.20;;;;;;;0.06;40.58;101163.97;5043786;28;20385;-83
2022/04/01 07:20:33;;;;;;;5.85;0.95;;;;;;;0.23;40.78;101156.38;5029365;28;20041;-80
2022/04/01 07:22:59;;;;;;;2.42;0.30;;;;;;;0.32;40.37;101160.72;5041999;28;20041;-81
2022/04/01 07:25:25;;;;;;;0.63;0.20;;;;;;;0.64;40.05;101166.97;5043736;28;20035;-81
2022/04/01 07:27:53;;;;;;;1.52;0.77;;;;;;;0.73;39.92;101167.88;5032470;28;20131;-79
2022/04/01 07:30:19;;;;;;;5.22;0.20;;;;;;;0.52;39.83;101174.59;5036403;28;20028;-79
2022/04/01 07:32:45;;;;;;;0.50;0.10;;;;;;;0.26;40.27;101177.00;5008222;28;20123;-80
2022/04/01 07:35:13;;;;;;;1.73;0.20;;;;;;;0.56;40.04;101180.63;5045312;28;20028;-84
2022/04/01 07:37:39;;;;;;;0.43;0.25;;;;;;;0.62;39.85;101178.09;5046833;28;20422;-81
2022/04/01 07:40:05;;;;;;;5.07;0.20;;;;;;;0.79;39.72;101173.03;5030883;28;20041;-81
2022/04/01 07:42:31;;;;;;;0.40;0.13;;;;;;;0.72;39.57;101171.28;5046441;28;20460;-76
2022/04/01 07:44:58;;;;;;;4.32;0.50;;;;;;;0.76;39.61;101179.03;5028551;28;20197;-80
2022/04/01 07:47:24;;;;;;;1.05;0.30;;;;;;;0.68;39.81;101184.13;5043128;28;20079;-80
2022/04/01 07:49:51;;;;;;;4.03;0.63;;;;;;;0.61;40.07;101186.66;5025393;28;20029;-79
2022/04/01 07:52:19;;;;;;;1.25;0.20;;;;;;;0.68;39.50;101191.84;5040001;28;20143;-82
2022/04/01 07:54:45;;;;;;;0.90;0.10;;;;;;;0.46;39.96;101184.84;5021487;28;20071;-79
2022/04/01 07:57:12;;;;;;;1.13;0.30;;;;;;;0.65;39.77;101191.81;5041632;28;20044;-80
2022/04/01 07:59:38;;;;;;;0.77;0.10;;;;;;;0.52;39.76;101197.72;5022190;28;20985;-82
2022/04/01 08:02:05;;;;;;;1.52;0.20;;;;;;;0.64;40.09;101200.41;5022790;28;20204;-77
2022/04/01 08:04:30;;;;;;;0.73;0.10;;;;;;;0.60;40.12;101192.66;5023418;28;20100;-76
2022/04/01 08:06:57;;;;;;;1.45;0.20;;;;;;;0.77;39.89;101200.47;5020510;28;20020;-81
2022/04/01 08:09:24;;;;;;;1.27;0.10;;;;;;;0.81;39.80;101208.22;5040278;28;20079;-81
2022/04/01 08:11:50;;;;;;;0.20;0.05;;;;;;;0.62;39.31;101209.81;5039171;28;20098;-81
2022/04/01 08:14:17;;;;;;;1.27;0.10;;;;;;;0.67;39.79;101205.56;5039578;28;20115;-80
2022/04/01 08:16:43;;;;;;;0.35;0.10;;;;;;;0.81;39.69;101210.78;5039419;28;20033;-78
2022/04/01 08:19:09;;;;;;;2.35;0.20;;;;;;;1.04;39.05;101221.22;5039344;28;20526;-81
2022/04/01 08:21:35;;;;;;;0.50;0.10;;;;;;;1.34;38.83;101213.63;5039320;28;20061;-80
2022/04/01 08:24:00;;;;;;;2.78;0.20;;;;;;;1.27;38.72;101225.63;5018010;28;20511;-81
2022/04/01 08:26:26;;;;;;;1.45;0.35;;;;;;;1.49;38.89;101230.03;5005630;28;20035;-81
2022/04/01 08:28:52;;;;;;;4.25;0.32;;;;;;;1.42;38.56;101228.28;5022656;28;20595;-82
2022/04/01 08:31:20;;;;;;;3.22;0.20;;;;;;;1.56;37.70;101230.06;5041920;28;20533;-81
2022/04/01 08:33:46;;;;;;;0.95;0.15;;;;;;;1.28;38.72;101219.59;5018073;28;20408;-82
2022/04/01 08:36:12;;;;;;;1.23;0.22;;;;;;;1.09;38.70;101228.97;5041319;28;20025;-82
2022/04/01 08:38:37;;;;;;;3.15;0.10;;;;;;;0.86;39.35;101231.41;5036071;28;20578;-78
2022/04/01 08:41:03;;;;;;;0.60;0.10;;;;;;;1.32;38.61;101244.50;5042014;28;20132;-82
2022/04/01 08:43:33;;;;;;;0.90;0.15;;;;;;;1.39;38.30;101238.53;5038691;28;20052;-80
2022/04/01 08:46:03;;;;;;;1.92;0.20;;;;;;;1.01;38.83;101239.19;5042717;28;20029;-78
2022/04/01 08:48:30;;;;;;;0.47;0.10;;;;;;;1.31;38.55;101242.81;5021085;28;20041;-81
2022/04/01 08:50:56;;;;;;;6.40;0.30;;;;;;;1.04;38.63;101249.53;5020677;28;20463;-81
2022/04/01 08:53:22;;;;;;;3.55;0.30;;;;;;;1.17;38.19;101249.59;5022170;28;20073;-80
2022/04/01 08:55:52;;;;;;;0.77;0.30;;;;;;;1.29;38.74;101257.38;5038348;28;20041;-79
2022/04/01 08:58:19;;;;;;;1.45;0.17;;;;;;;1.10;38.23;101252.16;5023424;28;20064;-81
2022/04/01 09:00:52;;;;;;;0.65;0.10;;;;;;;1.49;37.58;101255.78;5026659;28;20036;-81
2022/04/01 09:03:20;;;;;;;4.88;0.38;;;;;;;1.32;37.66;101252.25;5039661;28;20044;-82
2022/04/01 09:05:51;;;;;;;1.48;0.45;;;;;;;1.32;38.29;101247.09;5026003;28;20570;-80
2022/04/01 09:08:23;;;;;;;4.30;0.93;;;;;;;1.15;38.34;101261.59;5040977;28;20402;-77
2022/04/01 09:10:53;;;;;;;;;;;;;;;1.04;38.71;101264.97;5025993;28;20033;-77
2022/04/01 09:13:20;;;;;;;0.28;0.10;;;;;;;1.47;38.91;101261.78;5029769;28;19923;-83
2022/04/01 09:15:46;;;;;;;4.20;0.30;;;;;;;1.78;38.58;101265.34;5039265;28;20027;-77
2022/04/01 09:18:12;;;;;;;2.33;0.20;;;;;;;1.76;38.52;101269.63;5040202;28;20462;-82
2022/04/01 09:20:48;;;;;;;2.45;0.20;;;;;;;1.27;38.24;101264.25;5039769;28;20041;-81
2022/04/01 09:23:22;;;;;;;1.50;0.20;;;;;;;1.18;38.50;101277.06;5000425;28;21369;-81
2022/04/01 09:25:49;;;;;;;12.93;5.43;;;;;;;1.49;38.88;101276.41;5022890;28;20052;-81
2022/04/01 09:28:25;;;;;;;5.20;1.80;;;;;;;1.80;38.76;101270.50;5046045;28;20051;-80
2022/04/01 09:31:07;;;;;;;1.63;0.30;;;;;;;1.11;40.03;101277.03;5038702;28;20043;-77
2022/04/01 09:33:50;;;;;;;7.60;0.40;;;;;;;1.37;39.91;101280.59;5039002;28;20103;-79
2022/04/01 09:36:25;;;;;;;1.45;0.40;;;;;;;1.78;39.05;101282.53;5041753;28;20036;-81
2022/04/01 09:39:01;;;;;;;3.13;0.52;;;;;;;1.69;38.95;101288.50;5025633;28;20894;-79
2022/04/01 09:41:31;;;;;;;1.08;0.68;;;;;;;1.32;39.01;101272.84;5025951;28;20033;-80
2022/04/01 09:44:06;;;;;;;2.38;0.50;;;;;;;1.35;39.25;101287.44;5037078;28;20147;-82
2022/04/01 09:46:31;;;;;;;3.72;0.50;;;;;;;1.28;39.90;101290.00;5040634;28;20029;-78
2022/04/01 09:48:58;;;;;;;2.13;0.60;;;;;;;1.71;39.23;101286.78;5023499;28;20103;-81
2022/04/01 09:51:29;;;;;;;1.90;0.57;;;;;;;1.96;38.94;101282.56;5021900;28;20433;-79
2022/04/01 09:53:58;;;;;;;4.38;0.50;;;;;;;1.60;39.23;101281.59;5021134;28;20107;-79
2022/04/01 09:56:37;;;;;;;4.13;0.22;;;;;;;1.15;39.59;101292.47;5027894;28;20362;-81
2022/04/01 09:59:06;;;;;;;1.98;0.10;;;;;;;1.50;39.43;101285.81;5030329;28;20044;-79
2022/04/01 10:01:37;;;;;;;3.55;0.50;;;;;;;1.50;39.75;101293.56;5034553;28;20391;-78
2022/04/01 10:04:04;;;;;;;3.08;0.30;;;;;;;1.50;40.03;101292.72;5026115;28;20120;-80
2022/04/01 10:06:32;;;;;;;1.38;0.35;;;;;;;1.25;40.50;101282.25;5028253;28;20067;-81
2022/04/01 10:09:02;;;;;;;0.70;0.20;;;;;;;1.24;40.95;101287.41;5024483;28;20049;-79
2022/04/01 10:11:29;;;;;;;1.25;0.30;;;;;;;1.32;40.59;101293.44;5029314;28;20588;-80
2022/04/01 10:13:54;;;;;;;0.93;0.20;;;;;;;1.48;40.93;101297.88;5042245;28;20056;-84
2022/04/01 10:16:21;;;;;;;2.25;0.30;;;;;;;1.59;40.53;101290.16;5011617;28;20043;-83
2022/04/01 10:18:47;;;;;;;1.52;0.20;;;;;;;1.55;40.60;101290.16;5023579;28;20059;-81
2022/04/01 10:21:17;;;;;;;1.00;0.20;;;;;;;1.22;40.39;101292.56;5032987;28;20484;-78
2022/04/01 10:24:06;;;;;;;2.22;0.20;;;;;;;1.63;39.73;101285.91;5027010;28;20044;-80
2022/04/01 10:26:34;;;;;;;0.47;0.17;;;;;;;2.06;39.23;101283.44;5025625;28;20128;-80
2022/04/01 10:29:02;;;;;;;6.72;0.77;;;;;;;1.69;40.65;101293.66;5040122;28;20123;-81
2022/04/01 10:31:27;;;;;;;1.33;0.47;;;;;;;1.76;40.52;101291.97;5042718;28;20040;-79
2022/04/01 10:33:53;;;;;;;2.78;0.73;;;;;;;1.91;39.65;101305.75;5005661;28;20044;-81
2022/04/01 10:36:24;;;;;;;8.00;0.70;;;;;;;1.71;38.76;101294.53;5045328;28;20025;-81
2022/04/01 10:39:00;;;;;;;2.83;0.30;;;;;;;1.42;38.77;101296.97;5021056;28;20299;-81
2022/04/01 10:41:25;;;;;;;0.82;0.20;;;;;;;1.63;37.12;101301.34;5043714;28;20884;-82
2022/04/01 10:43:55;;;;;;;0.50;0.10;;;;;;;1.60;37.52;101299.63;5043041;28;20052;-79
2022/04/01 10:46:21;;;;;;;3.13;0.75;;;;;;;1.82;37.95;101298.00;5026863;28;20157;-78
2022/04/01 10:52:18;;;;;;;2.83;0.20;;;;;;;2.80;36.72;101296.38;5043873;28;20497;-82
2022/04/01 10:54:46;;;;;;;1.75;0.40;;;;;;;2.46;37.25;101299.81;5023502;28;20513;-79
2022/04/01 10:57:29;;;;;;;0.47;0.10;;;;;;;2.34;36.78;101292.09;5028667;28;20208;-82
2022/04/01 11:00:00;;;;;;;0.73;0.10;;;;;;;2.52;37.35;101288.66;5038427;28;20055;-78
2022/04/01 11:02:26;;;;;;;2.80;0.20;;;;;;;2.61;37.28;101293.81;5027515;28;20466;-81
2022/04/01 11:04:52;;;;;;;1.00;0.30;;;;;;;2.35;36.95;101292.09;5024538;28;20041;-78
2022/04/01 11:07:23;;;;;;;1.35;0.32;;;;;;;2.38;36.53;101301.56;5012622;28;20051;-81
2022/04/01 11:09:50;;;;;;;1.25;0.43;;;;;;;2.37;35.69;101304.97;5039723;28;20045;-77
2022/04/01 11:12:19;;;;;;;2.40;0.47;;;;;;;2.49;35.77;101298.97;5029731;28;20045;-78
2022/04/01 11:14:53;;;;;;;2.45;0.40;;;;;;;1.92;37.02;101302.31;5024862;28;20033;-78
2022/04/01 11:17:42;;;;;;;3.55;0.20;;;;;;;2.20;35.85;101297.22;5017391;28;20033;-78
2022/04/01 11:20:29;;;;;;;1.27;0.47;;;;;;;2.86;35.16;101293.78;5024472;28;20053;-80
2022/04/01 11:22:56;;;;;;;2.20;0.50;;;;;;;2.66;36.08;101302.41;5022138;28;20462;-80
2022/04/01 11:25:22;;;;;;;2.58;0.85;;;;;;;2.88;36.26;101302.41;5032076;28;20067;-82
2022/04/01 11:28:10;;;;;;;1.33;0.52;;;;;;;2.98;36.26;101296.38;5034847;28;20045;-76
2022/04/01 11:30:56;;;;;;;2.85;0.63;;;;;;;2.66;35.42;101291.22;5047517;28;20069;-74
2022/04/01 11:33:22;;;;;;;2.33;0.30;;;;;;;2.59;36.15;101292.09;5027289;28;20152;-82
2022/04/01 11:35:53;;;;;;;1.13;0.30;;;;;;;2.60;37.33;101289.53;5003437;28;20479;-79
2022/04/01 11:38:22;;;;;;;2.25;0.40;;;;;;;2.54;36.81;101292.09;5020665;28;20033;-82
2022/04/01 11:40:50;;;;;;;1.75;0.20;;;;;;;2.39;36.46;101294.66;5020954;28;20091;-80
2022/04/01 11:43:18;;;;;;;2.05;0.30;;;;;;;2.66;36.28;101299.81;5028380;28;20520;-78
2022/04/01 11:45:47;;;;;;;1.65;0.22;;;;;;;2.89;36.06;101299.81;5039232;28;20440;-78
2022/04/01 11:48:34;;;;;;;0.55;0.10;;;;;;;2.70;34.21;101292.94;5022994;28;20132;-77
2022/04/01 11:50:59;;;;;;;2.05;0.28;;;;;;;2.68;35.21;101299.81;5025633;28;20037;-78
2022/04/01 11:53:30;;;;;;;3.83;0.28;;;;;;;2.28;36.54;101305.81;5019492;28;20085;-82
2022/04/01 11:55:57;;;;;;;3.50;0.35;;;;;;;2.47;36.97;101300.69;5038356;28;20113;-78
2022/04/01 11:58:23;;;;;;;1.30;0.20;;;;;;;2.66;35.80;101315.31;5025092;28;20052;-79
2022/04/01 12:00:50;;;;;;;4.38;0.60;;;;;;;2.42;35.62;101307.56;5025451;28;20116;-82
2022/04/01 12:03:18;;;;;;;3.15;0.85;;;;;;;2.50;35.49;101298.97;5049821;28;20099;-79